Silver Plume, Colorado
Current Conditions -  °F | °C
As of 3:34 AM on Friday 21 Nov 2014 (Local Time) from K0CO Reporting Station
Overcast Overcast  
Wind Chill: -7°   Ceiling: 6000
Heat Index: 10°   Visibility: 10mi
Dew Point:   Wind: 17mph
Humidity: 85%   Direction: 330°NNW
Pressure: 30.06"   Gusts: NA
Location:  39.7°N, 105.73°W
Report Text: K0CO 211034Z AUTO 33015KT 10SM OVC060 M12/M14 A3006 RMK AO2
Loading
Personal Weather Stations






























Interactive Weather Map New forecast layout! Learn more

10-Day Weather Forecast

Advertisements
Track Severe Weather on mobile